Rina Amoretti — IBRR — position and weather

sailwx.info

Track history (hours):
 
Tides and Currents Weather Stations Pressure Air Temp Water Temp Dewpoint Dewpoint Depression Visibility Wind Speed Wind Dir Waves Ship Positions

Rina Amoretti

Last reported at 2016-May-29 16:33 UTC. Time now 2016-May-29 17:23 UTC.
Position N 40°28' E 014°13'.

Length 320 m; draft 8.4 m.

Type: Tanker. MMSI: 247197000.

Date/timePositionNaut miles runAvg speedWind from/ knotsBaromVisibWave heightAir tempDewpointWater temp
2016-May-29 16:33N 40°28' E 014°13'1313.2
2016-May-29 15:33N 40°41' E 014°14'9 7.9
2016-May-29 14:24N 40°50' E 014°18'0 0.0
2016-May-29 13:24N 40°50' E 014°18'0 0.0
2016-May-29 12:30N 40°50' E 014°18'0 0.0
2016-May-29 11:30N 40°50' E 014°18'0 0.0
2016-May-29 10:30N 40°50' E 014°18'0 0.0
2016-May-29 09:30N 40°50' E 014°18'0 0.0
2016-May-29 08:33N 40°50' E 014°18'0 0.0
2016-May-29 07:30N 40°50' E 014°18'0 0.0
2016-May-29 06:30N 40°50' E 014°18'0 0.0
2016-May-29 05:30N 40°50' E 014°18'0 0.0
2016-May-29 04:30N 40°50' E 014°18'0 0.0
2016-May-29 03:33N 40°50' E 014°18'0 0.0
2016-May-29 02:33N 40°50' E 014°18'0 0.0
2016-May-29 01:33N 40°50' E 014°18'0 0.0
2016-May-29 00:33N 40°50' E 014°18'0 0.0
2016-May-28 23:30N 40°50' E 014°18'0 0.0
2016-May-28 22:30N 40°50' E 014°18'0 0.0
2016-May-28 21:30N 40°50' E 014°18'0 0.0
2016-May-28 20:33N 40°50' E 014°18'0 0.0
2016-May-28 18:33N 40°50' E 014°18'0 0.0
2016-May-28 17:33N 40°50' E 014°18'0 0.0
2016-May-28 16:30N 40°50' E 014°18'0 0.0
2016-May-28 14:32N 40°50' E 014°18'0 0.0
2016-May-28 13:32N 40°50' E 014°18'0 0.0
2016-May-28 12:32N 40°50' E 014°18'0 0.0
2016-May-28 11:29N 40°50' E 014°18'0 0.0
2016-May-28 10:33N 40°50' E 014°18'8 7.9
2016-May-28 09:33N 40°43' E 014°15'1312.7
2016-May-28 08:33N 40°30' E 014°11'1313.3
2016-May-28 07:33N 40°18' E 014°19'1413.7
2016-May-28 06:33N 40°06' E 014°27'1413.9
2016-May-28 05:33N 39°54' E 014°36'2814.1
2016-May-28 03:33N 39°30' E 014°54'1414.2
2016-May-28 02:33N 39°17' E 015°04'1414.3
2016-May-28 01:33N 39°05' E 015°13'1514.3
2016-May-28 00:32N 38°52' E 015°22'1414.2
2016-May-27 23:33N 38°40' E 015°30'1414.0
2016-May-27 22:33N 38°27' E 015°38'1212.3
2016-May-27 21:33N 38°15' E 015°40'1110.8
2016-May-27 20:33N 38°05' E 015°35'1211.6
2016-May-27 19:33N 37°54' E 015°32'1414.0
2016-May-27 18:33N 37°40' E 015°27'1414.1
2016-May-27 17:33N 37°27' E 015°22'1414.1
2016-May-27 16:33N 37°13' E 015°16'4 0.4
2016-May-27 05:34N 37°13' E 015°12'0 0.0
2016-May-27 04:22N 37°13' E 015°12'0 0.0
2016-May-27 01:09N 37°13' E 015°12'0 0.0
2016-May-27 00:33N 37°13' E 015°12'0 0.0
2016-May-26 19:30N 37°13' E 015°12'2 0.3
2016-May-26 12:18N 37°12' E 015°14'8 9.2
2016-May-26 11:29N 37°18' E 015°20'1314.1
2016-May-26 10:33N 37°31' E 015°23'1414.1
2016-May-26 09:33N 37°44' E 015°28'1514.9
2016-May-26 08:33N 37°59' E 015°32'1515.3
2016-May-26 07:33N 38°14' E 015°36'7 7.4
2016-May-26 06:33N 38°19' E 015°30'1514.6
2016-May-26 05:33N 38°18' E 015°12'1414.5
2016-May-26 04:34N 38°16' E 014°53'1414.0
2016-May-26 03:33N 38°15' E 014°35'1413.9
2016-May-26 02:33N 38°13' E 014°18'1414.0
2016-May-26 01:33N 38°12' E 014°00'1414.2
2016-May-26 00:34N 38°11' E 013°42'1313.2
2016-May-25 23:34N 38°07' E 013°26'1 1.4
2016-May-25 22:32N 38°06' E 013°26'0 0.0
2016-May-25 21:32N 38°06' E 013°26'0 0.0
2016-May-25 20:32N 38°06' E 013°26'0 0.0
2016-May-25 19:32N 38°06' E 013°26'0 0.0
2016-May-25 18:32N 38°06' E 013°26'0 0.0
2016-May-25 17:32N 38°06' E 013°26'0 0.0
2016-May-25 16:32N 38°06' E 013°26'0 0.0
2016-May-25 15:32N 38°06' E 013°26'0 0.0
2016-May-25 14:32N 38°06' E 013°26'0 0.0
2016-May-25 13:32N 38°06' E 013°26'0 0.0
2016-May-25 12:32N 38°06' E 013°26'0 0.0
2016-May-25 11:32N 38°06' E 013°26'0 0.0
2016-May-25 10:32N 38°06' E 013°26'0 0.0
2016-May-25 09:32N 38°06' E 013°26'0 0.0
2016-May-25 08:32N 38°06' E 013°26'0 0.0
2016-May-25 07:32N 38°06' E 013°26'0 0.1
2016-May-25 06:32N 38°06' E 013°26'1 0.9
2016-May-25 05:33N 38°07' E 013°26'0 0.0
2016-May-25 04:33N 38°07' E 013°26'0 0.0
2016-May-25 03:33N 38°07' E 013°26'0 0.0
2016-May-25 02:33N 38°07' E 013°26'0 0.0
2016-May-25 01:33N 38°07' E 013°26'0 0.0
2016-May-25 00:33N 38°07' E 013°26'0 0.0
2016-May-24 23:33N 38°07' E 013°26'0 0.0
2016-May-24 22:33N 38°07' E 013°26'0 0.0
2016-May-24 21:33N 38°07' E 013°26'0 0.0
2016-May-24 20:33N 38°07' E 013°26'0 0.0
2016-May-24 19:33N 38°07' E 013°26'0 0.0
2016-May-24 18:33N 38°07' E 013°26'0 0.0
2016-May-24 17:33N 38°07' E 013°26'0 0.0
2016-May-24 16:33N 38°07' E 013°26'0 0.0
2016-May-24 15:33N 38°07' E 013°26'0 0.0
2016-May-24 14:33N 38°07' E 013°26'0 0.0
2016-May-24 13:33N 38°07' E 013°26'0 0.0
2016-May-24 12:33N 38°07' E 013°26'0 0.0
2016-May-24 11:34N 38°07' E 013°26'0 0.0
2016-May-24 10:33N 38°07' E 013°26'0 0.0
2016-May-24 09:33N 38°07' E 013°26'0 0.0
2016-May-24 08:33N 38°07' E 013°26'0 0.0
2016-May-24 07:33N 38°07' E 013°26'0 0.0
2016-May-24 06:33N 38°07' E 013°26'1 0.7
2016-May-24 05:33N 38°07' E 013°27'6 6.3
2016-May-24 04:33N 38°10' E 013°34'1211.5
2016-May-24 03:33N 38°11' E 013°49'1111.4
2016-May-24 02:33N 38°12' E 014°03'1211.6
2016-May-24 01:33N 38°14' E 014°18'1211.8
2016-May-24 00:33N 38°15' E 014°33'1211.9
2016-May-23 23:32N 38°16' E 014°48'1212.0
2016-May-23 22:33N 38°18' E 015°03'1212.0
2016-May-23 21:33N 38°18' E 015°18'1212.4
2016-May-23 20:33N 38°20' E 015°34'6 6.2
2016-May-23 19:33N 38°15' E 015°39'9 9.5
2016-May-23 18:33N 38°06' E 015°35'9 8.8
2016-May-23 17:33N 37°57' E 015°33'1111.2
2016-May-23 16:33N 37°46' E 015°29'1312.8
2016-May-23 15:30N 37°33' E 015°25'14 0.5
2016-May-22 08:26N 37°19' E 015°19'1112.5
2016-May-22 07:33N 37°30' E 015°22'1313.2
2016-May-22 06:34N 37°43' E 015°27'1413.8
2016-May-22 05:33N 37°56' E 015°31'1514.8
2016-May-22 04:33N 38°11' E 015°36'1212.4
2016-May-22 03:33N 38°23' E 015°38'1514.7
2016-May-22 02:34N 38°36' E 015°31'1414.4
2016-May-22 01:33N 38°50' E 015°23'1414.3
2016-May-22 00:33N 39°02' E 015°15'1414.3
2016-May-21 23:33N 39°14' E 015°05'4414.5
2016-May-21 20:33N 39°52' E 014°37'1414.4
2016-May-21 19:33N 40°05' E 014°28'1514.7
2016-May-21 18:33N 40°18' E 014°19'1514.6
2016-May-21 17:33N 40°31' E 014°11'1413.9
2016-May-21 16:33N 40°44' E 014°15'6 6.2
2016-May-21 15:34N 40°50' E 014°18'0 0.0
2016-May-21 14:33N 40°50' E 014°18'0 0.0
2016-May-21 13:33N 40°50' E 014°18'0 0.0
2016-May-21 12:32N 40°50' E 014°18'0 0.0
2016-May-21 11:32N 40°50' E 014°18'0 0.0
2016-May-21 10:34N 40°50' E 014°18'0 0.0
2016-May-21 09:34N 40°50' E 014°18'0 0.0
2016-May-21 08:33N 40°50' E 014°18'0 0.0
2016-May-21 07:33N 40°50' E 014°18'0 0.0
2016-May-21 06:33N 40°50' E 014°18'0 0.0
2016-May-21 05:34N 40°50' E 014°18'0 0.0
2016-May-21 04:33N 40°50' E 014°18'0 0.0
2016-May-21 03:33N 40°50' E 014°18'0 0.0
2016-May-21 02:33N 40°50' E 014°18'0 0.0
2016-May-21 01:33N 40°50' E 014°18'0 0.0
2016-May-21 00:33N 40°50' E 014°18'0 0.0
2016-May-20 23:34N 40°50' E 014°18'0 0.0
2016-May-20 22:33N 40°50' E 014°18'0 0.0
2016-May-20 21:33N 40°50' E 014°18'0 0.0
2016-May-20 20:33N 40°50' E 014°18'0 0.0
2016-May-20 19:33N 40°50' E 014°18'0 0.0
2016-May-20 18:33N 40°50' E 014°18'0 0.0
2016-May-20 17:33N 40°50' E 014°18'0 0.0
2016-May-20 16:33N 40°50' E 014°18'0 0.0
2016-May-20 15:33N 40°50' E 014°18'0 0.0
2016-May-20 14:33N 40°50' E 014°18'5 5.2
2016-May-20 13:34N 40°45' E 014°16'1413.5
2016-May-20 12:33N 40°33' E 014°09'1313.4
2016-May-20 11:33N 40°21' E 014°17'8313.6
2016-May-20 05:29N 39°09' E 015°10'1314.2
2016-May-20 04:33N 38°57' E 015°18'1414.0
2016-May-20 03:33N 38°45' E 015°26'1613.8
2016-May-20 02:23N 38°30' E 015°35'1213.8
2016-May-20 01:29N 38°19' E 015°42'1311.6
2016-May-20 00:23N 38°07' E 015°36'5313.5
2016-May-19 20:29N 37°16' E 015°18'  
Track history (hours):
 
Tides and Currents Weather Stations Pressure Air Temp Water Temp Dewpoint Dewpoint Depression Visibility Wind Speed Wind Dir Waves Ship Positions

Rina Amoretti

Last reported at 2016-May-29 16:33 UTC. Time now 2016-May-29 17:23 UTC.
Position N 40°28' E 014°13'.

Length 320 m; draft 8.4 m.

Type: Tanker. MMSI: 247197000.

Date/timePositionNaut miles runAvg speedWind from/ knotsBaromVisibWave heightAir tempDewpointWater temp
2016-May-29 16:33N 40°28' E 014°13'1313.2
2016-May-29 15:33N 40°41' E 014°14'9 7.9
2016-May-29 14:24N 40°50' E 014°18'0 0.0
2016-May-29 13:24N 40°50' E 014°18'0 0.0
2016-May-29 12:30N 40°50' E 014°18'0 0.0
2016-May-29 11:30N 40°50' E 014°18'0 0.0
2016-May-29 10:30N 40°50' E 014°18'0 0.0
2016-May-29 09:30N 40°50' E 014°18'0 0.0
2016-May-29 08:33N 40°50' E 014°18'0 0.0
2016-May-29 07:30N 40°50' E 014°18'0 0.0
2016-May-29 06:30N 40°50' E 014°18'0 0.0
2016-May-29 05:30N 40°50' E 014°18'0 0.0
2016-May-29 04:30N 40°50' E 014°18'0 0.0
2016-May-29 03:33N 40°50' E 014°18'0 0.0
2016-May-29 02:33N 40°50' E 014°18'0 0.0
2016-May-29 01:33N 40°50' E 014°18'0 0.0
2016-May-29 00:33N 40°50' E 014°18'0 0.0
2016-May-28 23:30N 40°50' E 014°18'0 0.0
2016-May-28 22:30N 40°50' E 014°18'0 0.0
2016-May-28 21:30N 40°50' E 014°18'0 0.0
2016-May-28 20:33N 40°50' E 014°18'0 0.0
2016-May-28 18:33N 40°50' E 014°18'0 0.0
2016-May-28 17:33N 40°50' E 014°18'0 0.0
2016-May-28 16:30N 40°50' E 014°18'0 0.0
2016-May-28 14:32N 40°50' E 014°18'0 0.0
2016-May-28 13:32N 40°50' E 014°18'0 0.0
2016-May-28 12:32N 40°50' E 014°18'0 0.0
2016-May-28 11:29N 40°50' E 014°18'0 0.0
2016-May-28 10:33N 40°50' E 014°18'8 7.9
2016-May-28 09:33N 40°43' E 014°15'1312.7
2016-May-28 08:33N 40°30' E 014°11'1313.3
2016-May-28 07:33N 40°18' E 014°19'1413.7
2016-May-28 06:33N 40°06' E 014°27'1413.9
2016-May-28 05:33N 39°54' E 014°36'2814.1
2016-May-28 03:33N 39°30' E 014°54'1414.2
2016-May-28 02:33N 39°17' E 015°04'1414.3
2016-May-28 01:33N 39°05' E 015°13'1514.3
2016-May-28 00:32N 38°52' E 015°22'1414.2
2016-May-27 23:33N 38°40' E 015°30'1414.0
2016-May-27 22:33N 38°27' E 015°38'1212.3
2016-May-27 21:33N 38°15' E 015°40'1110.8
2016-May-27 20:33N 38°05' E 015°35'1211.6
2016-May-27 19:33N 37°54' E 015°32'1414.0
2016-May-27 18:33N 37°40' E 015°27'1414.1
2016-May-27 17:33N 37°27' E 015°22'1414.1
2016-May-27 16:33N 37°13' E 015°16'4 0.4
2016-May-27 05:34N 37°13' E 015°12'0 0.0
2016-May-27 04:22N 37°13' E 015°12'0 0.0
2016-May-27 01:09N 37°13' E 015°12'0 0.0
2016-May-27 00:33N 37°13' E 015°12'0 0.0
2016-May-26 19:30N 37°13' E 015°12'2 0.3
2016-May-26 12:18N 37°12' E 015°14'8 9.2
2016-May-26 11:29N 37°18' E 015°20'1314.1
2016-May-26 10:33N 37°31' E 015°23'1414.1
2016-May-26 09:33N 37°44' E 015°28'1514.9
2016-May-26 08:33N 37°59' E 015°32'1515.3
2016-May-26 07:33N 38°14' E 015°36'7 7.4
2016-May-26 06:33N 38°19' E 015°30'1514.6
2016-May-26 05:33N 38°18' E 015°12'1414.5
2016-May-26 04:34N 38°16' E 014°53'1414.0
2016-May-26 03:33N 38°15' E 014°35'1413.9
2016-May-26 02:33N 38°13' E 014°18'1414.0
2016-May-26 01:33N 38°12' E 014°00'1414.2
2016-May-26 00:34N 38°11' E 013°42'1313.2
2016-May-25 23:34N 38°07' E 013°26'1 1.4
2016-May-25 22:32N 38°06' E 013°26'0 0.0
2016-May-25 21:32N 38°06' E 013°26'0 0.0
2016-May-25 20:32N 38°06' E 013°26'0 0.0
2016-May-25 19:32N 38°06' E 013°26'0 0.0
2016-May-25 18:32N 38°06' E 013°26'0 0.0
2016-May-25 17:32N 38°06' E 013°26'0 0.0
2016-May-25 16:32N 38°06' E 013°26'0 0.0
2016-May-25 15:32N 38°06' E 013°26'0 0.0
2016-May-25 14:32N 38°06' E 013°26'0 0.0
2016-May-25 13:32N 38°06' E 013°26'0 0.0
2016-May-25 12:32N 38°06' E 013°26'0 0.0
2016-May-25 11:32N 38°06' E 013°26'0 0.0
2016-May-25 10:32N 38°06' E 013°26'0 0.0
2016-May-25 09:32N 38°06' E 013°26'0 0.0
2016-May-25 08:32N 38°06' E 013°26'0 0.0
2016-May-25 07:32N 38°06' E 013°26'0 0.1
2016-May-25 06:32N 38°06' E 013°26'1 0.9
2016-May-25 05:33N 38°07' E 013°26'0 0.0
2016-May-25 04:33N 38°07' E 013°26'0 0.0
2016-May-25 03:33N 38°07' E 013°26'0 0.0
2016-May-25 02:33N 38°07' E 013°26'0 0.0
2016-May-25 01:33N 38°07' E 013°26'0 0.0
2016-May-25 00:33N 38°07' E 013°26'0 0.0
2016-May-24 23:33N 38°07' E 013°26'0 0.0
2016-May-24 22:33N 38°07' E 013°26'0 0.0
2016-May-24 21:33N 38°07' E 013°26'0 0.0
2016-May-24 20:33N 38°07' E 013°26'0 0.0
2016-May-24 19:33N 38°07' E 013°26'0 0.0
2016-May-24 18:33N 38°07' E 013°26'0 0.0
2016-May-24 17:33N 38°07' E 013°26'0 0.0
2016-May-24 16:33N 38°07' E 013°26'0 0.0
2016-May-24 15:33N 38°07' E 013°26'0 0.0
2016-May-24 14:33N 38°07' E 013°26'0 0.0
2016-May-24 13:33N 38°07' E 013°26'0 0.0
2016-May-24 12:33N 38°07' E 013°26'0 0.0
2016-May-24 11:34N 38°07' E 013°26'0 0.0
2016-May-24 10:33N 38°07' E 013°26'0 0.0
2016-May-24 09:33N 38°07' E 013°26'0 0.0
2016-May-24 08:33N 38°07' E 013°26'0 0.0
2016-May-24 07:33N 38°07' E 013°26'0 0.0
2016-May-24 06:33N 38°07' E 013°26'1 0.7
2016-May-24 05:33N 38°07' E 013°27'6 6.3
2016-May-24 04:33N 38°10' E 013°34'1211.5
2016-May-24 03:33N 38°11' E 013°49'1111.4
2016-May-24 02:33N 38°12' E 014°03'1211.6
2016-May-24 01:33N 38°14' E 014°18'1211.8
2016-May-24 00:33N 38°15' E 014°33'1211.9
2016-May-23 23:32N 38°16' E 014°48'1212.0
2016-May-23 22:33N 38°18' E 015°03'1212.0
2016-May-23 21:33N 38°18' E 015°18'1212.4
2016-May-23 20:33N 38°20' E 015°34'6 6.2
2016-May-23 19:33N 38°15' E 015°39'9 9.5
2016-May-23 18:33N 38°06' E 015°35'9 8.8
2016-May-23 17:33N 37°57' E 015°33'1111.2
2016-May-23 16:33N 37°46' E 015°29'1312.8
2016-May-23 15:30N 37°33' E 015°25'14 0.5
2016-May-22 08:26N 37°19' E 015°19'1112.5
2016-May-22 07:33N 37°30' E 015°22'1313.2
2016-May-22 06:34N 37°43' E 015°27'1413.8
2016-May-22 05:33N 37°56' E 015°31'1514.8
2016-May-22 04:33N 38°11' E 015°36'1212.4
2016-May-22 03:33N 38°23' E 015°38'1514.7
2016-May-22 02:34N 38°36' E 015°31'1414.4
2016-May-22 01:33N 38°50' E 015°23'1414.3
2016-May-22 00:33N 39°02' E 015°15'1414.3
2016-May-21 23:33N 39°14' E 015°05'4414.5
2016-May-21 20:33N 39°52' E 014°37'1414.4
2016-May-21 19:33N 40°05' E 014°28'1514.7
2016-May-21 18:33N 40°18' E 014°19'1514.6
2016-May-21 17:33N 40°31' E 014°11'1413.9
2016-May-21 16:33N 40°44' E 014°15'6 6.2
2016-May-21 15:34N 40°50' E 014°18'0 0.0
2016-May-21 14:33N 40°50' E 014°18'0 0.0
2016-May-21 13:33N 40°50' E 014°18'0 0.0
2016-May-21 12:32N 40°50' E 014°18'0 0.0
2016-May-21 11:32N 40°50' E 014°18'0 0.0
2016-May-21 10:34N 40°50' E 014°18'0 0.0
2016-May-21 09:34N 40°50' E 014°18'0 0.0
2016-May-21 08:33N 40°50' E 014°18'0 0.0
2016-May-21 07:33N 40°50' E 014°18'0 0.0
2016-May-21 06:33N 40°50' E 014°18'0 0.0
2016-May-21 05:34N 40°50' E 014°18'0 0.0
2016-May-21 04:33N 40°50' E 014°18'0 0.0
2016-May-21 03:33N 40°50' E 014°18'0 0.0
2016-May-21 02:33N 40°50' E 014°18'0 0.0
2016-May-21 01:33N 40°50' E 014°18'0 0.0
2016-May-21 00:33N 40°50' E 014°18'0 0.0
2016-May-20 23:34N 40°50' E 014°18'0 0.0
2016-May-20 22:33N 40°50' E 014°18'0 0.0
2016-May-20 21:33N 40°50' E 014°18'0 0.0
2016-May-20 20:33N 40°50' E 014°18'0 0.0
2016-May-20 19:33N 40°50' E 014°18'0 0.0
2016-May-20 18:33N 40°50' E 014°18'0 0.0
2016-May-20 17:33N 40°50' E 014°18'0 0.0
2016-May-20 16:33N 40°50' E 014°18'0 0.0
2016-May-20 15:33N 40°50' E 014°18'0 0.0
2016-May-20 14:33N 40°50' E 014°18'5 5.2
2016-May-20 13:34N 40°45' E 014°16'1413.5
2016-May-20 12:33N 40°33' E 014°09'1313.4
2016-May-20 11:33N 40°21' E 014°17'8313.6
2016-May-20 05:29N 39°09' E 015°10'1314.2
2016-May-20 04:33N 38°57' E 015°18'1414.0
2016-May-20 03:33N 38°45' E 015°26'1613.8
2016-May-20 02:23N 38°30' E 015°35'1213.8
2016-May-20 01:29N 38°19' E 015°42'1311.6
2016-May-20 00:23N 38°07' E 015°36'5313.5
2016-May-19 20:29N 37°16' E 015°18'  

Dump ship's entire track history